sensor_id;sensor_type;location;lat;lon;timestamp;P1;durP1;ratioP1;P2;durP2;ratioP2
78187;SDS011;67456;41.872;21.602;2024-03-02T00:00:28;24.02;;;15.57;;
78187;SDS011;67456;41.872;21.602;2024-03-02T00:02:54;22.75;;;15.38;;
78187;SDS011;67456;41.872;21.602;2024-03-02T00:05:21;21.10;;;14.73;;
78187;SDS011;67456;41.872;21.602;2024-03-02T00:07:53;25.40;;;17.20;;
78187;SDS011;67456;41.872;21.602;2024-03-02T00:10:22;26.23;;;16.65;;
78187;SDS011;67456;41.872;21.602;2024-03-02T00:12:55;28.95;;;18.08;;
78187;SDS011;67456;41.872;21.602;2024-03-02T00:15:41;29.48;;;19.42;;
78187;SDS011;67456;41.872;21.602;2024-03-02T00:18:11;26.42;;;18.02;;
78187;SDS011;67456;41.872;21.602;2024-03-02T00:20:38;25.65;;;17.63;;
78187;SDS011;67456;41.872;21.602;2024-03-02T00:23:05;25.20;;;17.38;;
78187;SDS011;67456;41.872;21.602;2024-03-02T00:25:38;25.83;;;17.90;;
78187;SDS011;67456;41.872;21.602;2024-03-02T00:28:10;29.17;;;17.42;;
78187;SDS011;67456;41.872;21.602;2024-03-02T00:33:06;23.65;;;15.45;;
78187;SDS011;67456;41.872;21.602;2024-03-02T00:35:32;28.20;;;18.27;;
78187;SDS011;67456;41.872;21.602;2024-03-02T00:38:03;23.58;;;15.15;;
78187;SDS011;67456;41.872;21.602;2024-03-02T00:40:29;21.05;;;14.85;;
78187;SDS011;67456;41.872;21.602;2024-03-02T00:42:56;23.08;;;15.27;;
78187;SDS011;67456;41.872;21.602;2024-03-02T00:45:22;23.85;;;15.00;;
78187;SDS011;67456;41.872;21.602;2024-03-02T00:47:50;21.55;;;15.05;;
78187;SDS011;67456;41.872;21.602;2024-03-02T00:50:16;27.08;;;16.38;;
78187;SDS011;67456;41.872;21.602;2024-03-02T00:52:42;21.20;;;13.90;;
78187;SDS011;67456;41.872;21.602;2024-03-02T00:55:09;20.13;;;13.57;;
78187;SDS011;67456;41.872;21.602;2024-03-02T00:57:35;21.73;;;13.70;;
78187;SDS011;67456;41.872;21.602;2024-03-02T01:00:01;22.35;;;13.15;;
78187;SDS011;67456;41.872;21.602;2024-03-02T01:02:28;21.17;;;13.75;;
78187;SDS011;67456;41.872;21.602;2024-03-02T01:04:54;24.63;;;14.32;;
78187;SDS011;67456;41.872;21.602;2024-03-02T01:07:21;22.98;;;14.50;;
78187;SDS011;67456;41.872;21.602;2024-03-02T01:09:47;19.80;;;14.13;;
78187;SDS011;67456;41.872;21.602;2024-03-02T01:12:13;42.78;;;22.88;;
78187;SDS011;67456;41.872;21.602;2024-03-02T01:14:40;37.13;;;21.67;;
78187;SDS011;67456;41.872;21.602;2024-03-02T01:17:06;31.80;;;19.95;;
78187;SDS011;67456;41.872;21.602;2024-03-02T01:19:32;33.70;;;21.17;;
78187;SDS011;67456;41.872;21.602;2024-03-02T01:21:58;30.05;;;19.88;;
78187;SDS011;67456;41.872;21.602;2024-03-02T01:24:25;38.80;;;22.48;;
78187;SDS011;67456;41.872;21.602;2024-03-02T01:26:51;46.63;;;24.17;;
78187;SDS011;67456;41.872;21.602;2024-03-02T01:29:17;34.25;;;19.48;;
78187;SDS011;67456;41.872;21.602;2024-03-02T01:31:44;28.95;;;17.80;;
78187;SDS011;67456;41.872;21.602;2024-03-02T01:34:11;26.85;;;16.38;;
78187;SDS011;67456;41.872;21.602;2024-03-02T01:36:37;56.05;;;31.88;;
78187;SDS011;67456;41.872;21.602;2024-03-02T01:39:03;38.72;;;23.80;;
78187;SDS011;67456;41.872;21.602;2024-03-02T01:41:34;28.15;;;16.88;;
78187;SDS011;67456;41.872;21.602;2024-03-02T01:44:00;23.67;;;16.60;;
78187;SDS011;67456;41.872;21.602;2024-03-02T01:46:26;26.55;;;16.30;;
78187;SDS011;67456;41.872;21.602;2024-03-02T01:48:52;27.90;;;16.73;;
78187;SDS011;67456;41.872;21.602;2024-03-02T01:51:19;23.02;;;14.38;;
78187;SDS011;67456;41.872;21.602;2024-03-02T01:53:45;22.23;;;14.45;;
78187;SDS011;67456;41.872;21.602;2024-03-02T01:56:11;22.48;;;15.82;;
78187;SDS011;67456;41.872;21.602;2024-03-02T01:58:37;21.92;;;14.10;;
78187;SDS011;67456;41.872;21.602;2024-03-02T02:01:03;22.70;;;14.38;;
78187;SDS011;67456;41.872;21.602;2024-03-02T02:03:31;24.42;;;15.30;;
78187;SDS011;67456;41.872;21.602;2024-03-02T02:05:57;22.58;;;15.07;;
78187;SDS011;67456;41.872;21.602;2024-03-02T02:08:24;24.88;;;14.93;;
78187;SDS011;67456;41.872;21.602;2024-03-02T02:10:50;22.13;;;14.15;;
78187;SDS011;67456;41.872;21.602;2024-03-02T02:13:16;25.05;;;14.95;;
78187;SDS011;67456;41.872;21.602;2024-03-02T02:15:42;24.70;;;16.05;;
78187;SDS011;67456;41.872;21.602;2024-03-02T02:18:08;22.80;;;14.45;;
78187;SDS011;67456;41.872;21.602;2024-03-02T02:20:34;23.13;;;14.38;;
78187;SDS011;67456;41.872;21.602;2024-03-02T02:23:03;25.23;;;15.80;;
78187;SDS011;67456;41.872;21.602;2024-03-02T02:25:35;30.27;;;18.73;;
78187;SDS011;67456;41.872;21.602;2024-03-02T02:28:01;28.33;;;17.80;;
78187;SDS011;67456;41.872;21.602;2024-03-02T02:30:28;28.98;;;18.42;;
78187;SDS011;67456;41.872;21.602;2024-03-02T02:32:54;29.25;;;19.17;;
78187;SDS011;67456;41.872;21.602;2024-03-02T02:35:21;28.58;;;19.17;;
78187;SDS011;67456;41.872;21.602;2024-03-02T02:37:49;26.13;;;16.63;;
78187;SDS011;67456;41.872;21.602;2024-03-02T02:40:16;20.67;;;13.52;;
78187;SDS011;67456;41.872;21.602;2024-03-02T02:42:44;22.98;;;13.30;;
78187;SDS011;67456;41.872;21.602;2024-03-02T02:45:10;18.90;;;11.70;;
78187;SDS011;67456;41.872;21.602;2024-03-02T02:47:38;21.05;;;12.50;;
78187;SDS011;67456;41.872;21.602;2024-03-02T02:50:04;18.45;;;12.30;;
78187;SDS011;67456;41.872;21.602;2024-03-02T02:52:37;16.77;;;10.02;;
78187;SDS011;67456;41.872;21.602;2024-03-02T02:55:04;15.52;;;10.10;;
78187;SDS011;67456;41.872;21.602;2024-03-02T02:57:31;20.52;;;13.05;;
78187;SDS011;67456;41.872;21.602;2024-03-02T03:00:04;30.90;;;20.42;;
78187;SDS011;67456;41.872;21.602;2024-03-02T03:02:35;24.77;;;15.77;;
78187;SDS011;67456;41.872;21.602;2024-03-02T03:05:01;23.15;;;16.40;;
78187;SDS011;67456;41.872;21.602;2024-03-02T03:07:27;26.65;;;16.77;;
78187;SDS011;67456;41.872;21.602;2024-03-02T03:09:54;28.40;;;17.70;;
78187;SDS011;67456;41.872;21.602;2024-03-02T03:12:20;30.20;;;18.67;;
78187;SDS011;67456;41.872;21.602;2024-03-02T03:14:46;30.60;;;17.83;;
78187;SDS011;67456;41.872;21.602;2024-03-02T03:17:12;29.50;;;19.05;;
78187;SDS011;67456;41.872;21.602;2024-03-02T03:19:38;31.95;;;23.00;;
78187;SDS011;67456;41.872;21.602;2024-03-02T03:22:04;32.60;;;23.70;;
78187;SDS011;67456;41.872;21.602;2024-03-02T03:24:30;29.73;;;21.75;;
78187;SDS011;67456;41.872;21.602;2024-03-02T03:26:58;25.80;;;17.92;;
78187;SDS011;67456;41.872;21.602;2024-03-02T03:29:24;24.73;;;17.10;;
78187;SDS011;67456;41.872;21.602;2024-03-02T03:31:50;24.98;;;16.00;;
78187;SDS011;67456;41.872;21.602;2024-03-02T03:34:16;23.40;;;14.75;;
78187;SDS011;67456;41.872;21.602;2024-03-02T03:36:43;27.20;;;16.10;;
78187;SDS011;67456;41.872;21.602;2024-03-02T03:39:09;23.40;;;15.30;;
78187;SDS011;67456;41.872;21.602;2024-03-02T03:41:35;25.45;;;15.43;;
78187;SDS011;67456;41.872;21.602;2024-03-02T03:44:02;24.70;;;16.73;;
78187;SDS011;67456;41.872;21.602;2024-03-02T03:46:29;22.85;;;14.07;;
78187;SDS011;67456;41.872;21.602;2024-03-02T03:48:55;21.15;;;15.27;;
78187;SDS011;67456;41.872;21.602;2024-03-02T03:51:21;19.60;;;13.57;;
78187;SDS011;67456;41.872;21.602;2024-03-02T03:53:48;20.67;;;13.82;;
78187;SDS011;67456;41.872;21.602;2024-03-02T03:56:14;23.15;;;15.85;;
78187;SDS011;67456;41.872;21.602;2024-03-02T03:58:40;20.15;;;13.60;;
78187;SDS011;67456;41.872;21.602;2024-03-02T04:01:06;18.88;;;13.00;;
78187;SDS011;67456;41.872;21.602;2024-03-02T04:03:33;18.17;;;12.75;;
78187;SDS011;67456;41.872;21.602;2024-03-02T04:05:59;17.67;;;12.80;;
78187;SDS011;67456;41.872;21.602;2024-03-02T04:08:25;18.23;;;12.75;;
78187;SDS011;67456;41.872;21.602;2024-03-02T04:10:51;19.52;;;12.85;;
78187;SDS011;67456;41.872;21.602;2024-03-02T04:13:18;19.73;;;13.05;;
78187;SDS011;67456;41.872;21.602;2024-03-02T04:15:44;18.30;;;12.05;;
78187;SDS011;67456;41.872;21.602;2024-03-02T04:18:10;16.08;;;11.25;;
78187;SDS011;67456;41.872;21.602;2024-03-02T04:20:36;16.38;;;10.07;;
78187;SDS011;67456;41.872;21.602;2024-03-02T04:23:03;12.27;;;8.40;;
78187;SDS011;67456;41.872;21.602;2024-03-02T04:25:29;13.95;;;9.18;;
78187;SDS011;67456;41.872;21.602;2024-03-02T04:27:55;10.95;;;7.28;;
78187;SDS011;67456;41.872;21.602;2024-03-02T04:30:21;13.73;;;9.18;;
78187;SDS011;67456;41.872;21.602;2024-03-02T04:32:47;15.00;;;10.45;;
78187;SDS011;67456;41.872;21.602;2024-03-02T04:35:14;13.57;;;9.13;;
78187;SDS011;67456;41.872;21.602;2024-03-02T04:37:40;15.02;;;9.68;;
78187;SDS011;67456;41.872;21.602;2024-03-02T04:40:06;15.13;;;9.55;;
78187;SDS011;67456;41.872;21.602;2024-03-02T04:42:35;16.10;;;10.77;;
78187;SDS011;67456;41.872;21.602;2024-03-02T04:45:02;22.10;;;14.25;;
78187;SDS011;67456;41.872;21.602;2024-03-02T04:47:28;32.22;;;18.33;;
78187;SDS011;67456;41.872;21.602;2024-03-02T04:49:54;30.10;;;18.02;;
78187;SDS011;67456;41.872;21.602;2024-03-02T04:52:20;34.30;;;18.70;;
78187;SDS011;67456;41.872;21.602;2024-03-02T04:54:46;20.90;;;12.60;;
78187;SDS011;67456;41.872;21.602;2024-03-02T04:57:31;18.55;;;12.98;;
78187;SDS011;67456;41.872;21.602;2024-03-02T04:59:57;31.20;;;16.45;;
78187;SDS011;67456;41.872;21.602;2024-03-02T05:02:24;19.73;;;13.15;;
78187;SDS011;67456;41.872;21.602;2024-03-02T05:04:50;21.02;;;12.98;;
78187;SDS011;67456;41.872;21.602;2024-03-02T05:07:16;16.88;;;12.05;;
78187;SDS011;67456;41.872;21.602;2024-03-02T05:09:42;16.80;;;11.15;;
78187;SDS011;67456;41.872;21.602;2024-03-02T05:12:09;15.32;;;10.30;;
78187;SDS011;67456;41.872;21.602;2024-03-02T05:14:54;15.80;;;10.07;;
78187;SDS011;67456;41.872;21.602;2024-03-02T05:17:21;14.18;;;9.82;;
78187;SDS011;67456;41.872;21.602;2024-03-02T05:19:47;13.90;;;9.85;;
78187;SDS011;67456;41.872;21.602;2024-03-02T05:22:13;14.15;;;10.02;;
78187;SDS011;67456;41.872;21.602;2024-03-02T05:24:39;15.82;;;9.98;;
78187;SDS011;67456;41.872;21.602;2024-03-02T05:27:05;13.43;;;9.68;;
78187;SDS011;67456;41.872;21.602;2024-03-02T05:29:32;12.23;;;9.68;;
78187;SDS011;67456;41.872;21.602;2024-03-02T05:31:58;12.35;;;9.00;;
78187;SDS011;67456;41.872;21.602;2024-03-02T05:34:25;16.92;;;12.00;;
78187;SDS011;67456;41.872;21.602;2024-03-02T05:36:51;13.65;;;11.02;;
78187;SDS011;67456;41.872;21.602;2024-03-02T05:39:17;19.30;;;13.88;;
78187;SDS011;67456;41.872;21.602;2024-03-02T05:41:43;17.45;;;11.85;;
78187;SDS011;67456;41.872;21.602;2024-03-02T05:44:09;18.65;;;12.45;;
78187;SDS011;67456;41.872;21.602;2024-03-02T05:46:35;20.95;;;13.98;;
78187;SDS011;67456;41.872;21.602;2024-03-02T05:49:01;18.10;;;12.00;;
78187;SDS011;67456;41.872;21.602;2024-03-02T05:51:28;19.17;;;11.85;;
78187;SDS011;67456;41.872;21.602;2024-03-02T05:53:54;16.35;;;11.55;;
78187;SDS011;67456;41.872;21.602;2024-03-02T05:56:20;19.13;;;14.23;;
78187;SDS011;67456;41.872;21.602;2024-03-02T05:58:47;22.52;;;16.20;;
78187;SDS011;67456;41.872;21.602;2024-03-02T06:01:19;23.42;;;16.67;;
78187;SDS011;67456;41.872;21.602;2024-03-02T06:03:53;25.10;;;16.52;;
78187;SDS011;67456;41.872;21.602;2024-03-02T06:06:19;24.67;;;16.38;;
78187;SDS011;67456;41.872;21.602;2024-03-02T06:08:46;25.92;;;17.40;;
78187;SDS011;67456;41.872;21.602;2024-03-02T06:11:12;25.08;;;16.88;;
78187;SDS011;67456;41.872;21.602;2024-03-02T06:13:38;26.52;;;16.67;;
78187;SDS011;67456;41.872;21.602;2024-03-02T06:16:04;22.67;;;15.15;;
78187;SDS011;67456;41.872;21.602;2024-03-02T06:18:30;30.20;;;19.52;;
78187;SDS011;67456;41.872;21.602;2024-03-02T06:20:57;34.80;;;20.38;;
78187;SDS011;67456;41.872;21.602;2024-03-02T06:23:23;36.20;;;21.98;;
78187;SDS011;67456;41.872;21.602;2024-03-02T06:25:49;34.17;;;20.58;;
78187;SDS011;67456;41.872;21.602;2024-03-02T06:28:16;36.75;;;21.58;;
78187;SDS011;67456;41.872;21.602;2024-03-02T06:30:42;34.65;;;20.58;;
78187;SDS011;67456;41.872;21.602;2024-03-02T06:33:08;30.55;;;20.80;;
78187;SDS011;67456;41.872;21.602;2024-03-02T06:35:35;34.45;;;19.75;;
78187;SDS011;67456;41.872;21.602;2024-03-02T06:38:01;29.17;;;17.88;;
78187;SDS011;67456;41.872;21.602;2024-03-02T06:40:27;25.58;;;16.10;;
78187;SDS011;67456;41.872;21.602;2024-03-02T06:42:53;27.98;;;18.90;;
78187;SDS011;67456;41.872;21.602;2024-03-02T06:45:20;26.13;;;16.77;;
78187;SDS011;67456;41.872;21.602;2024-03-02T06:47:46;21.55;;;15.80;;
78187;SDS011;67456;41.872;21.602;2024-03-02T06:50:12;21.60;;;14.00;;
78187;SDS011;67456;41.872;21.602;2024-03-02T06:52:38;20.45;;;13.65;;
78187;SDS011;67456;41.872;21.602;2024-03-02T06:55:05;58.30;;;39.40;;
78187;SDS011;67456;41.872;21.602;2024-03-02T06:57:31;19.05;;;13.48;;
78187;SDS011;67456;41.872;21.602;2024-03-02T06:59:57;21.10;;;13.95;;
78187;SDS011;67456;41.872;21.602;2024-03-02T07:02:24;15.35;;;10.48;;
78187;SDS011;67456;41.872;21.602;2024-03-02T07:04:53;15.55;;;10.27;;
78187;SDS011;67456;41.872;21.602;2024-03-02T07:07:19;94.07;;;63.88;;
78187;SDS011;67456;41.872;21.602;2024-03-02T07:09:46;23.92;;;17.25;;
78187;SDS011;67456;41.872;21.602;2024-03-02T07:12:13;24.85;;;16.95;;
78187;SDS011;67456;41.872;21.602;2024-03-02T07:14:39;15.45;;;9.60;;
78187;SDS011;67456;41.872;21.602;2024-03-02T07:17:36;9.50;;;7.13;;
78187;SDS011;67456;41.872;21.602;2024-03-02T07:20:03;12.18;;;7.82;;
78187;SDS011;67456;41.872;21.602;2024-03-02T07:22:29;10.65;;;6.82;;
78187;SDS011;67456;41.872;21.602;2024-03-02T07:24:57;10.20;;;7.38;;
78187;SDS011;67456;41.872;21.602;2024-03-02T07:27:29;10.77;;;7.93;;
78187;SDS011;67456;41.872;21.602;2024-03-02T07:29:58;12.90;;;9.77;;
78187;SDS011;67456;41.872;21.602;2024-03-02T07:32:29;43.47;;;37.78;;
78187;SDS011;67456;41.872;21.602;2024-03-02T07:35:01;11.65;;;8.05;;
78187;SDS011;67456;41.872;21.602;2024-03-02T07:37:30;23.90;;;16.17;;
78187;SDS011;67456;41.872;21.602;2024-03-02T07:39:57;6.03;;;5.00;;
78187;SDS011;67456;41.872;21.602;2024-03-02T07:42:26;9.10;;;7.53;;
78187;SDS011;67456;41.872;21.602;2024-03-02T07:44:54;6.13;;;5.30;;
78187;SDS011;67456;41.872;21.602;2024-03-02T07:47:20;5.93;;;4.88;;
78187;SDS011;67456;41.872;21.602;2024-03-02T07:49:46;11.98;;;10.27;;
78187;SDS011;67456;41.872;21.602;2024-03-02T07:52:13;12.20;;;10.07;;
78187;SDS011;67456;41.872;21.602;2024-03-02T07:54:39;9.18;;;7.20;;
78187;SDS011;67456;41.872;21.602;2024-03-02T07:57:05;8.52;;;6.68;;
78187;SDS011;67456;41.872;21.602;2024-03-02T07:59:31;9.98;;;6.82;;
78187;SDS011;67456;41.872;21.602;2024-03-02T08:01:57;8.93;;;6.75;;
78187;SDS011;67456;41.872;21.602;2024-03-02T08:04:23;8.82;;;7.15;;
78187;SDS011;67456;41.872;21.602;2024-03-02T08:06:50;7.90;;;6.32;;
78187;SDS011;67456;41.872;21.602;2024-03-02T08:09:16;9.23;;;6.72;;
78187;SDS011;67456;41.872;21.602;2024-03-02T08:11:42;8.07;;;6.65;;
78187;SDS011;67456;41.872;21.602;2024-03-02T08:14:08;7.65;;;6.22;;
78187;SDS011;67456;41.872;21.602;2024-03-02T08:16:34;7.95;;;6.53;;
78187;SDS011;67456;41.872;21.602;2024-03-02T08:19:01;9.82;;;7.40;;
78187;SDS011;67456;41.872;21.602;2024-03-02T08:21:28;6.15;;;5.32;;
78187;SDS011;67456;41.872;21.602;2024-03-02T08:23:56;6.45;;;4.85;;
78187;SDS011;67456;41.872;21.602;2024-03-02T08:26:23;8.07;;;5.32;;
78187;SDS011;67456;41.872;21.602;2024-03-02T08:28:49;8.02;;;6.30;;
78187;SDS011;67456;41.872;21.602;2024-03-02T08:31:15;9.65;;;7.43;;
78187;SDS011;67456;41.872;21.602;2024-03-02T08:33:41;6.57;;;5.05;;
78187;SDS011;67456;41.872;21.602;2024-03-02T08:36:08;6.03;;;4.18;;
78187;SDS011;67456;41.872;21.602;2024-03-02T08:38:34;7.13;;;5.50;;
78187;SDS011;67456;41.872;21.602;2024-03-02T08:41:01;6.72;;;4.88;;
78187;SDS011;67456;41.872;21.602;2024-03-02T08:43:28;13.05;;;7.07;;
78187;SDS011;67456;41.872;21.602;2024-03-02T08:45:54;13.15;;;7.32;;
78187;SDS011;67456;41.872;21.602;2024-03-02T08:48:21;12.27;;;6.63;;
78187;SDS011;67456;41.872;21.602;2024-03-02T08:50:47;9.30;;;5.95;;
78187;SDS011;67456;41.872;21.602;2024-03-02T08:53:13;7.90;;;5.80;;
78187;SDS011;67456;41.872;21.602;2024-03-02T08:58:09;8.30;;;4.75;;
78187;SDS011;67456;41.872;21.602;2024-03-02T09:00:35;11.43;;;7.38;;
78187;SDS011;67456;41.872;21.602;2024-03-02T09:03:01;9.52;;;6.15;;
78187;SDS011;67456;41.872;21.602;2024-03-02T09:05:27;43.30;;;19.40;;
78187;SDS011;67456;41.872;21.602;2024-03-02T09:07:53;18.00;;;11.00;;
78187;SDS011;67456;41.872;21.602;2024-03-02T09:10:20;7.80;;;4.03;;
78187;SDS011;67456;41.872;21.602;2024-03-02T09:12:47;6.88;;;4.63;;
78187;SDS011;67456;41.872;21.602;2024-03-02T09:15:13;6.53;;;4.15;;
78187;SDS011;67456;41.872;21.602;2024-03-02T09:17:39;7.65;;;4.70;;
78187;SDS011;67456;41.872;21.602;2024-03-02T09:20:06;10.65;;;6.97;;
78187;SDS011;67456;41.872;21.602;2024-03-02T09:22:32;9.48;;;5.32;;
78187;SDS011;67456;41.872;21.602;2024-03-02T09:24:58;22.00;;;11.85;;
78187;SDS011;67456;41.872;21.602;2024-03-02T09:27:24;9.15;;;6.40;;
78187;SDS011;67456;41.872;21.602;2024-03-02T09:29:50;10.95;;;7.18;;
78187;SDS011;67456;41.872;21.602;2024-03-02T09:32:17;10.18;;;6.57;;
78187;SDS011;67456;41.872;21.602;2024-03-02T09:34:43;6.82;;;4.53;;
78187;SDS011;67456;41.872;21.602;2024-03-02T09:37:10;10.32;;;6.28;;
78187;SDS011;67456;41.872;21.602;2024-03-02T09:39:36;8.27;;;5.32;;
78187;SDS011;67456;41.872;21.602;2024-03-02T09:42:03;6.00;;;3.63;;
78187;SDS011;67456;41.872;21.602;2024-03-02T09:44:30;6.68;;;4.25;;
78187;SDS011;67456;41.872;21.602;2024-03-02T09:46:56;5.43;;;4.20;;
78187;SDS011;67456;41.872;21.602;2024-03-02T09:49:22;9.27;;;4.78;;
78187;SDS011;67456;41.872;21.602;2024-03-02T09:51:49;7.25;;;3.80;;
78187;SDS011;67456;41.872;21.602;2024-03-02T09:54:15;10.45;;;4.32;;
78187;SDS011;67456;41.872;21.602;2024-03-02T09:56:43;4.32;;;2.75;;
78187;SDS011;67456;41.872;21.602;2024-03-02T09:59:09;7.18;;;3.30;;
78187;SDS011;67456;41.872;21.602;2024-03-02T10:01:36;7.85;;;3.33;;
78187;SDS011;67456;41.872;21.602;2024-03-02T10:04:02;5.53;;;2.33;;
78187;SDS011;67456;41.872;21.602;2024-03-02T10:06:28;3.83;;;1.98;;
78187;SDS011;67456;41.872;21.602;2024-03-02T10:08:55;5.65;;;2.25;;
78187;SDS011;67456;41.872;21.602;2024-03-02T10:11:31;6.68;;;3.83;;
78187;SDS011;67456;41.872;21.602;2024-03-02T10:14:08;9.95;;;5.07;;
78187;SDS011;67456;41.872;21.602;2024-03-02T10:19:20;6.10;;;4.20;;
78187;SDS011;67456;41.872;21.602;2024-03-02T10:21:51;6.20;;;3.03;;
78187;SDS011;67456;41.872;21.602;2024-03-02T10:24:18;8.20;;;3.92;;
78187;SDS011;67456;41.872;21.602;2024-03-02T10:26:44;7.72;;;5.13;;
78187;SDS011;67456;41.872;21.602;2024-03-02T10:29:11;6.50;;;3.97;;
78187;SDS011;67456;41.872;21.602;2024-03-02T10:31:38;8.63;;;4.57;;
78187;SDS011;67456;41.872;21.602;2024-03-02T10:34:05;6.03;;;3.53;;
78187;SDS011;67456;41.872;21.602;2024-03-02T10:36:32;6.03;;;3.05;;
78187;SDS011;67456;41.872;21.602;2024-03-02T10:39:02;5.68;;;2.85;;
78187;SDS011;67456;41.872;21.602;2024-03-02T10:41:30;3.30;;;2.50;;
78187;SDS011;67456;41.872;21.602;2024-03-02T10:43:58;6.22;;;2.38;;
78187;SDS011;67456;41.872;21.602;2024-03-02T10:46:29;3.28;;;2.22;;
78187;SDS011;67456;41.872;21.602;2024-03-02T10:49:05;14.98;;;9.25;;
78187;SDS011;67456;41.872;21.602;2024-03-02T10:53:58;8.02;;;2.75;;
78187;SDS011;67456;41.872;21.602;2024-03-02T10:58:55;5.32;;;3.00;;
78187;SDS011;67456;41.872;21.602;2024-03-02T11:01:28;4.75;;;2.42;;
78187;SDS011;67456;41.872;21.602;2024-03-02T11:03:56;4.65;;;2.42;;
78187;SDS011;67456;41.872;21.602;2024-03-02T11:06:22;6.85;;;3.20;;
78187;SDS011;67456;41.872;21.602;2024-03-02T11:08:49;5.03;;;2.53;;
78187;SDS011;67456;41.872;21.602;2024-03-02T11:11:19;4.78;;;2.53;;
78187;SDS011;67456;41.872;21.602;2024-03-02T11:13:49;5.53;;;2.80;;
78187;SDS011;67456;41.872;21.602;2024-03-02T11:16:19;3.88;;;2.13;;
78187;SDS011;67456;41.872;21.602;2024-03-02T11:18:51;6.63;;;2.85;;
78187;SDS011;67456;41.872;21.602;2024-03-02T11:21:17;6.30;;;2.63;;
78187;SDS011;67456;41.872;21.602;2024-03-02T11:23:44;5.55;;;2.45;;
78187;SDS011;67456;41.872;21.602;2024-03-02T11:26:20;6.82;;;3.17;;
78187;SDS011;67456;41.872;21.602;2024-03-02T11:28:46;4.90;;;2.78;;
78187;SDS011;67456;41.872;21.602;2024-03-02T11:31:12;6.38;;;3.13;;
78187;SDS011;67456;41.872;21.602;2024-03-02T11:33:39;6.05;;;2.67;;
78187;SDS011;67456;41.872;21.602;2024-03-02T11:36:08;5.22;;;2.35;;
78187;SDS011;67456;41.872;21.602;2024-03-02T11:38:35;6.55;;;2.40;;
78187;SDS011;67456;41.872;21.602;2024-03-02T11:41:02;5.10;;;2.28;;
78187;SDS011;67456;41.872;21.602;2024-03-02T11:43:29;4.80;;;1.85;;
78187;SDS011;67456;41.872;21.602;2024-03-02T11:46:03;4.10;;;1.70;;
78187;SDS011;67456;41.872;21.602;2024-03-02T11:48:32;5.40;;;1.58;;
78187;SDS011;67456;41.872;21.602;2024-03-02T11:51:00;6.15;;;2.95;;
78187;SDS011;67456;41.872;21.602;2024-03-02T11:53:27;5.57;;;2.30;;
78187;SDS011;67456;41.872;21.602;2024-03-02T11:55:57;5.38;;;1.80;;
78187;SDS011;67456;41.872;21.602;2024-03-02T12:00:51;3.40;;;1.63;;
78187;SDS011;67456;41.872;21.602;2024-03-02T12:03:18;7.38;;;4.47;;
78187;SDS011;67456;41.872;21.602;2024-03-02T12:05:48;4.68;;;1.92;;
78187;SDS011;67456;41.872;21.602;2024-03-02T12:08:14;5.63;;;1.77;;
78187;SDS011;67456;41.872;21.602;2024-03-02T12:10:40;5.13;;;1.73;;
78187;SDS011;67456;41.872;21.602;2024-03-02T12:13:07;4.63;;;2.10;;
78187;SDS011;67456;41.872;21.602;2024-03-02T12:15:36;4.05;;;1.65;;
78187;SDS011;67456;41.872;21.602;2024-03-02T12:18:02;3.15;;;1.50;;
78187;SDS011;67456;41.872;21.602;2024-03-02T12:20:29;3.38;;;1.52;;
78187;SDS011;67456;41.872;21.602;2024-03-02T12:22:57;3.95;;;1.90;;
78187;SDS011;67456;41.872;21.602;2024-03-02T12:25:24;6.50;;;1.92;;
78187;SDS011;67456;41.872;21.602;2024-03-02T12:27:51;6.55;;;1.75;;
78187;SDS011;67456;41.872;21.602;2024-03-02T12:30:19;4.32;;;1.50;;
78187;SDS011;67456;41.872;21.602;2024-03-02T12:32:46;8.60;;;3.22;;
78187;SDS011;67456;41.872;21.602;2024-03-02T12:35:13;8.82;;;3.20;;
78187;SDS011;67456;41.872;21.602;2024-03-02T12:37:43;7.07;;;2.22;;
78187;SDS011;67456;41.872;21.602;2024-03-02T12:40:10;5.65;;;2.30;;
78187;SDS011;67456;41.872;21.602;2024-03-02T12:42:38;8.02;;;3.38;;
78187;SDS011;67456;41.872;21.602;2024-03-02T12:45:05;8.32;;;4.20;;
78187;SDS011;67456;41.872;21.602;2024-03-02T12:47:31;6.50;;;2.72;;
78187;SDS011;67456;41.872;21.602;2024-03-02T12:49:58;6.60;;;2.80;;
78187;SDS011;67456;41.872;21.602;2024-03-02T12:52:24;5.85;;;1.88;;
78187;SDS011;67456;41.872;21.602;2024-03-02T12:54:51;4.35;;;1.45;;
78187;SDS011;67456;41.872;21.602;2024-03-02T12:57:18;4.95;;;2.15;;
78187;SDS011;67456;41.872;21.602;2024-03-02T12:59:47;5.30;;;2.92;;
78187;SDS011;67456;41.872;21.602;2024-03-02T13:02:17;7.28;;;2.65;;
78187;SDS011;67456;41.872;21.602;2024-03-02T13:04:43;4.93;;;2.03;;
78187;SDS011;67456;41.872;21.602;2024-03-02T13:07:10;5.25;;;2.08;;
78187;SDS011;67456;41.872;21.602;2024-03-02T13:09:38;5.43;;;2.00;;
78187;SDS011;67456;41.872;21.602;2024-03-02T13:12:05;6.85;;;2.03;;
78187;SDS011;67456;41.872;21.602;2024-03-02T13:14:35;8.10;;;2.38;;
78187;SDS011;67456;41.872;21.602;2024-03-02T13:17:01;6.38;;;1.67;;
78187;SDS011;67456;41.872;21.602;2024-03-02T13:19:30;3.03;;;1.27;;
78187;SDS011;67456;41.872;21.602;2024-03-02T13:21:57;8.00;;;3.38;;
78187;SDS011;67456;41.872;21.602;2024-03-02T13:24:23;5.70;;;1.73;;
78187;SDS011;67456;41.872;21.602;2024-03-02T13:26:53;8.45;;;2.33;;
78187;SDS011;67456;41.872;21.602;2024-03-02T13:29:22;5.10;;;1.63;;
78187;SDS011;67456;41.872;21.602;2024-03-02T13:31:48;4.18;;;1.67;;
78187;SDS011;67456;41.872;21.602;2024-03-02T13:34:15;5.68;;;1.35;;
78187;SDS011;67456;41.872;21.602;2024-03-02T13:36:42;4.63;;;1.40;;
78187;SDS011;67456;41.872;21.602;2024-03-02T13:39:08;4.20;;;1.73;;
78187;SDS011;67456;41.872;21.602;2024-03-02T13:41:36;10.10;;;3.55;;
78187;SDS011;67456;41.872;21.602;2024-03-02T13:44:02;5.70;;;2.22;;
78187;SDS011;67456;41.872;21.602;2024-03-02T13:46:28;4.82;;;3.33;;
78187;SDS011;67456;41.872;21.602;2024-03-02T13:48:54;5.15;;;1.85;;
78187;SDS011;67456;41.872;21.602;2024-03-02T13:51:21;4.15;;;2.00;;
78187;SDS011;67456;41.872;21.602;2024-03-02T13:53:47;9.13;;;3.70;;
78187;SDS011;67456;41.872;21.602;2024-03-02T13:56:13;5.40;;;2.50;;
78187;SDS011;67456;41.872;21.602;2024-03-02T13:58:39;7.60;;;3.30;;
78187;SDS011;67456;41.872;21.602;2024-03-02T14:01:06;7.00;;;3.72;;
78187;SDS011;67456;41.872;21.602;2024-03-02T14:03:32;12.20;;;4.35;;
78187;SDS011;67456;41.872;21.602;2024-03-02T14:05:58;9.13;;;4.15;;
78187;SDS011;67456;41.872;21.602;2024-03-02T14:08:24;7.13;;;2.65;;
78187;SDS011;67456;41.872;21.602;2024-03-02T14:10:50;6.38;;;3.20;;
78187;SDS011;67456;41.872;21.602;2024-03-02T14:13:16;6.25;;;3.13;;
78187;SDS011;67456;41.872;21.602;2024-03-02T14:15:44;5.90;;;2.05;;
78187;SDS011;67456;41.872;21.602;2024-03-02T14:18:11;12.13;;;4.05;;
78187;SDS011;67456;41.872;21.602;2024-03-02T14:20:37;9.40;;;2.80;;
78187;SDS011;67456;41.872;21.602;2024-03-02T14:23:03;5.85;;;2.13;;
78187;SDS011;67456;41.872;21.602;2024-03-02T14:25:30;5.90;;;2.28;;
78187;SDS011;67456;41.872;21.602;2024-03-02T14:27:58;6.50;;;1.77;;
78187;SDS011;67456;41.872;21.602;2024-03-02T14:30:24;5.18;;;1.33;;
78187;SDS011;67456;41.872;21.602;2024-03-02T14:32:50;4.90;;;1.80;;
78187;SDS011;67456;41.872;21.602;2024-03-02T14:35:17;3.42;;;1.60;;